Time;durP1;ratioP1;P1;durP2;ratioP2;P2;SDS_P1;SDS_P2;PMS_P1;PMS_P2;Temp;Humidity;BMP_temperature;BMP_pressure;BME280_temperature;BME280_humidity;BME280_pressure;Samples;Min_cycle;Max_cycle;Signal;HPM_P1;HPM_P2
2024/02/22 00:00:15;;;;;;;14.98;13.07;;;9.70;99.90;;;;;;4989990;28;20030;-77
2024/02/22 00:02:45;;;;;;;11.02;9.93;;;9.70;99.90;;;;;;4974175;28;20773;-76
2024/02/22 00:05:11;;;;;;;13.02;11.82;;;9.70;99.90;;;;;;4986578;28;20855;-76
2024/02/22 00:07:38;;;;;;;11.25;10.25;;;9.70;99.90;;;;;;4977330;28;20045;-76
2024/02/22 00:10:06;;;;;;;12.45;11.35;;;9.70;99.90;;;;;;4991412;28;20041;-76
2024/02/22 00:12:37;;;;;;;13.43;12.23;;;9.70;99.90;;;;;;4991630;28;20025;-76
2024/02/22 00:15:08;;;;;;;12.65;11.52;;;9.70;99.90;;;;;;4972956;28;21341;-77
2024/02/22 00:17:35;;;;;;;11.20;10.20;;;9.70;99.90;;;;;;4972279;28;20060;-77
2024/02/22 00:20:03;;;;;;;10.85;9.75;;;9.80;99.90;;;;;;4991991;28;20037;-77
2024/02/22 00:22:30;;;;;;;13.40;12.10;;;9.70;99.90;;;;;;4989447;28;20024;-77
2024/02/22 00:24:57;;;;;;;12.73;11.52;;;9.80;99.90;;;;;;4994785;28;20056;-76
2024/02/22 00:27:25;;;;;;;15.73;12.20;;;9.80;99.90;;;;;;4976287;28;20424;-77
2024/02/22 00:29:52;;;;;;;15.52;13.95;;;9.80;99.90;;;;;;4955971;28;20060;-76
2024/02/22 00:32:18;;;;;;;13.85;12.45;;;9.80;99.90;;;;;;5003062;28;20043;-76
2024/02/22 00:34:45;;;;;;;12.88;11.68;;;9.80;99.90;;;;;;4988104;28;20731;-77
2024/02/22 00:37:11;;;;;;;12.30;11.10;;;9.80;99.90;;;;;;4986202;28;20049;-77
2024/02/22 00:39:38;;;;;;;10.48;9.48;;;9.80;99.90;;;;;;4973137;28;20472;-77
2024/02/22 00:42:05;;;;;;;14.05;12.55;;;9.80;99.90;;;;;;4976588;28;20059;-76
2024/02/22 00:44:32;;;;;;;12.10;10.93;;;9.90;99.90;;;;;;4998398;28;20293;-76
2024/02/22 00:46:58;;;;;;;12.25;11.05;;;9.90;99.90;;;;;;4995368;28;20045;-76
2024/02/22 00:49:24;;;;;;;13.38;12.07;;;9.90;99.90;;;;;;5004581;28;20052;-76
2024/02/22 00:51:52;;;;;;;14.77;13.27;;;9.90;99.90;;;;;;4989970;28;20487;-76
2024/02/22 00:54:18;;;;;;;11.35;10.25;;;9.90;99.90;;;;;;4974009;28;20037;-76
2024/02/22 00:56:44;;;;;;;12.55;11.35;;;9.90;99.90;;;;;;4969729;28;20049;-77
2024/02/22 00:59:11;;;;;;;13.25;11.95;;;9.90;99.90;;;;;;4989425;28;20755;-76
2024/02/22 01:01:37;;;;;;;14.18;12.70;;;9.90;99.90;;;;;;4964553;28;20603;-76
2024/02/22 01:04:04;;;;;;;14.82;13.20;;;9.90;99.90;;;;;;4995586;28;20040;-76
2024/02/22 01:06:31;;;;;;;15.02;13.52;;;9.90;99.90;;;;;;4986472;28;21373;-76
2024/02/22 01:08:58;;;;;;;17.02;15.13;;;9.90;99.90;;;;;;5006238;28;20941;-76
2024/02/22 01:11:25;;;;;;;12.95;11.63;;;10.00;99.90;;;;;;4957364;28;20041;-76
2024/02/22 01:13:51;;;;;;;16.05;14.35;;;10.00;99.90;;;;;;4972582;28;20388;-77
2024/02/22 01:16:18;;;;;;;14.88;13.32;;;10.00;99.90;;;;;;4987703;28;20620;-76
2024/02/22 01:18:44;;;;;;;14.27;12.75;;;10.00;99.90;;;;;;4962567;28;20029;-76
2024/02/22 01:21:12;;;;;;;14.20;12.38;;;10.00;99.90;;;;;;4980522;28;20384;-77
2024/02/22 01:23:38;;;;;;;15.70;13.68;;;10.00;99.90;;;;;;5010803;28;20029;-76
2024/02/22 01:26:04;;;;;;;13.75;12.00;;;10.00;99.90;;;;;;4971865;28;20044;-77
2024/02/22 01:28:31;;;;;;;14.77;12.88;;;10.10;99.90;;;;;;4972695;28;20249;-76
2024/02/22 01:30:57;;;;;;;18.20;13.90;;;10.10;99.90;;;;;;4987985;28;20030;-76
2024/02/22 01:33:23;;;;;;;16.00;14.13;;;10.10;99.90;;;;;;4986955;28;20032;-76
2024/02/22 01:35:50;;;;;;;14.57;12.80;;;10.10;99.90;;;;;;4967507;28;20394;-76
2024/02/22 01:38:16;;;;;;;14.15;12.20;;;10.10;99.90;;;;;;4960846;28;20520;-76
2024/02/22 01:40:43;;;;;;;12.35;11.13;;;10.10;99.90;;;;;;4977754;28;20620;-76
2024/02/22 01:43:09;;;;;;;12.65;11.27;;;10.10;99.90;;;;;;4991296;28;20041;-76
2024/02/22 01:45:36;;;;;;;14.52;12.13;;;10.10;99.90;;;;;;4988815;28;20044;-77
2024/02/22 01:48:04;;;;;;;15.93;12.82;;;10.10;99.90;;;;;;4985159;28;20052;-76
2024/02/22 01:50:30;;;;;;;14.48;12.98;;;10.10;99.90;;;;;;4972537;28;20385;-76
2024/02/22 01:52:57;;;;;;;17.73;13.80;;;10.10;99.90;;;;;;4986866;28;20029;-77
2024/02/22 01:55:26;;;;;;;15.82;12.65;;;10.20;99.90;;;;;;4979192;28;20056;-76
2024/02/22 01:57:52;;;;;;;13.43;11.95;;;10.10;99.90;;;;;;4994795;28;20041;-77
2024/02/22 02:00:23;;;;;;;14.68;11.80;;;10.10;99.90;;;;;;4976336;28;20022;-77
2024/02/22 02:02:52;;;;;;;13.43;11.20;;;10.20;99.90;;;;;;4991038;28;20369;-76
2024/02/22 02:05:19;;;;;;;14.05;11.60;;;10.20;99.90;;;;;;4986421;28;20037;-76
2024/02/22 02:07:46;;;;;;;12.57;10.52;;;10.20;99.90;;;;;;4986762;28;20037;-76
2024/02/22 02:10:12;;;;;;;12.77;10.73;;;10.20;99.90;;;;;;4971467;28;20412;-76
2024/02/22 02:12:38;;;;;;;12.82;11.32;;;10.20;99.90;;;;;;4995927;28;20045;-76
2024/02/22 02:15:05;;;;;;;16.02;12.90;;;10.20;99.90;;;;;;4993390;28;20516;-76
2024/02/22 02:17:32;;;;;;;15.20;12.50;;;10.20;99.90;;;;;;4987657;28;20045;-76
2024/02/22 02:20:05;;;;;;;12.93;11.40;;;10.20;99.90;;;;;;5005602;28;20041;-76
2024/02/22 02:22:51;;;;;;;16.20;13.48;;;10.20;99.90;;;;;;5006009;28;20036;-76
2024/02/22 02:25:17;;;;;;;13.45;10.82;;;10.20;99.90;;;;;;4988124;28;20039;-76
2024/02/22 02:27:44;;;;;;;14.88;12.20;;;10.30;99.90;;;;;;4987664;28;20037;-76
2024/02/22 02:30:11;;;;;;;14.18;11.55;;;10.30;99.90;;;;;;4996825;28;20041;-76
2024/02/22 02:32:38;;;;;;;19.95;14.68;;;10.30;99.90;;;;;;4997309;28;20511;-77
2024/02/22 02:35:04;;;;;;;15.48;12.88;;;10.30;99.90;;;;;;4991805;28;20029;-76
2024/02/22 02:37:31;;;;;;;24.63;15.65;;;10.30;99.90;;;;;;4974365;28;20036;-76
2024/02/22 02:39:57;;;;;;;18.02;12.88;;;10.30;99.90;;;;;;4988547;28;20048;-75
2024/02/22 02:42:24;;;;;;;20.17;14.30;;;10.30;99.90;;;;;;4991057;28;20033;-76
2024/02/22 02:44:51;;;;;;;29.55;17.83;;;10.40;99.90;;;;;;4990648;28;20378;-76
2024/02/22 02:47:18;;;;;;;27.65;16.98;;;10.40;99.90;;;;;;4993894;28;20026;-76
2024/02/22 02:49:44;;;;;;;24.33;15.40;;;10.30;99.90;;;;;;5000730;28;20068;-76
2024/02/22 02:52:10;;;;;;;26.67;17.20;;;10.40;99.90;;;;;;4995677;28;20037;-76
2024/02/22 02:54:36;;;;;;;26.70;16.60;;;10.40;99.90;;;;;;4959115;28;20848;-76
2024/02/22 02:57:03;;;;;;;34.38;18.75;;;10.40;99.90;;;;;;4977708;28;20037;-75
2024/02/22 02:59:29;;;;;;;32.15;18.63;;;10.40;99.90;;;;;;4976880;28;21232;-77
2024/02/22 03:01:56;;;;;;;31.67;18.77;;;10.40;99.90;;;;;;4974435;28;20037;-76
2024/02/22 03:04:23;;;;;;;30.40;18.40;;;10.40;99.90;;;;;;4975151;28;20045;-76
2024/02/22 03:06:49;;;;;;;26.88;16.73;;;10.40;99.90;;;;;;4972679;28;20060;-76
2024/02/22 03:09:16;;;;;;;44.88;21.60;;;10.50;99.90;;;;;;5031895;28;20042;-76
2024/02/22 03:11:43;;;;;;;41.75;22.98;;;10.40;99.90;;;;;;4960584;28;20049;-76
2024/02/22 03:14:10;;;;;;;41.95;21.02;;;10.40;99.90;;;;;;4993451;28;20672;-76
2024/02/22 03:16:37;;;;;;;41.25;22.52;;;10.50;99.90;;;;;;4961802;28;20045;-76
2024/02/22 03:19:04;;;;;;;46.25;23.83;;;10.50;99.90;;;;;;4992907;28;20586;-76
2024/02/22 03:21:32;;;;;;;44.25;22.23;;;10.50;99.90;;;;;;4978937;28;20030;-76
2024/02/22 03:23:58;;;;;;;42.17;21.52;;;10.50;99.90;;;;;;4996393;28;20034;-76
2024/02/22 03:26:24;;;;;;;55.00;26.88;;;10.50;99.90;;;;;;4997661;28;20022;-76
2024/02/22 03:28:54;;;;;;;38.53;20.42;;;10.50;99.90;;;;;;4971042;28;20381;-76
2024/02/22 03:31:22;;;;;;;36.90;21.27;;;10.50;99.90;;;;;;4986519;28;20040;-76
2024/02/22 03:33:48;;;;;;;53.60;24.48;;;10.50;99.90;;;;;;4985719;28;20394;-76
2024/02/22 03:36:15;;;;;;;43.45;23.30;;;10.50;99.90;;;;;;4988107;28;20729;-76
2024/02/22 03:38:42;;;;;;;44.65;23.77;;;10.50;99.90;;;;;;4989169;28;20403;-76
2024/02/22 03:41:08;;;;;;;46.50;23.30;;;10.50;99.90;;;;;;4992351;28;20021;-75
2024/02/22 03:43:37;;;;;;;44.97;21.67;;;10.50;99.90;;;;;;4998364;28;20041;-76
2024/02/22 03:46:04;;;;;;;44.53;21.95;;;10.50;99.90;;;;;;4978115;28;20033;-75
2024/02/22 03:48:31;;;;;;;36.08;20.42;;;10.60;99.90;;;;;;4990908;28;20037;-76
2024/02/22 03:50:57;;;;;;;44.75;22.02;;;10.50;99.90;;;;;;4969835;28;20053;-76
2024/02/22 03:53:24;;;;;;;40.05;21.60;;;10.60;99.90;;;;;;5019611;28;20064;-76
2024/02/22 03:55:51;;;;;;;47.63;23.60;;;10.60;99.90;;;;;;4985780;28;20038;-76
2024/02/22 03:58:17;;;;;;;52.50;24.75;;;10.60;99.90;;;;;;4973032;28;20037;-75
2024/02/22 04:00:43;;;;;;;63.63;28.25;;;10.60;99.90;;;;;;4976888;28;20056;-76
2024/02/22 04:03:09;;;;;;;51.22;24.20;;;10.60;99.90;;;;;;4998676;28;20372;-75
2024/02/22 04:05:36;;;;;;;48.55;23.42;;;10.60;99.90;;;;;;4989783;28;21127;-75
2024/02/22 04:08:02;;;;;;;48.83;22.33;;;10.60;99.90;;;;;;5005986;28;20662;-76
2024/02/22 04:10:29;;;;;;;47.13;23.08;;;10.60;99.90;;;;;;4988157;28;20042;-75
2024/02/22 04:12:55;;;;;;;52.03;24.65;;;10.60;99.90;;;;;;4986483;28;20040;-75
2024/02/22 04:15:21;;;;;;;54.05;23.48;;;10.60;99.90;;;;;;5014834;28;20033;-75
2024/02/22 04:17:48;;;;;;;54.22;24.70;;;10.60;99.90;;;;;;4984971;28;20504;-75
2024/02/22 04:20:14;;;;;;;51.88;24.45;;;10.60;99.90;;;;;;4995170;28;20021;-75
2024/02/22 04:22:48;;;;;;;56.70;25.05;;;10.60;99.90;;;;;;4997305;28;20029;-76
2024/02/22 04:25:15;;;;;;;54.97;23.92;;;10.60;99.90;;;;;;4991240;28;20346;-75
2024/02/22 04:27:41;;;;;;;52.38;23.90;;;10.60;99.90;;;;;;4988663;28;20036;-75
2024/02/22 04:30:12;;;;;;;49.17;22.98;;;10.60;99.90;;;;;;4970501;28;20036;-76
2024/02/22 04:32:38;;;;;;;44.03;20.48;;;10.60;99.90;;;;;;4957427;28;20048;-75
2024/02/22 04:35:05;;;;;;;63.45;25.98;;;10.60;99.90;;;;;;4982251;28;20052;-75
2024/02/22 04:37:32;;;;;;;62.17;25.65;;;10.60;99.90;;;;;;4971742;28;20042;-75
2024/02/22 04:39:59;;;;;;;58.33;22.95;;;10.60;99.90;;;;;;4978691;28;20906;-75
2024/02/22 04:42:25;;;;;;;44.15;20.17;;;10.60;99.90;;;;;;4978301;28;20033;-76
2024/02/22 04:44:52;;;;;;;51.33;23.17;;;10.60;99.90;;;;;;4997578;28;20038;-75
2024/02/22 04:47:18;;;;;;;50.58;22.75;;;10.60;99.90;;;;;;4998772;28;20871;-76
2024/02/22 04:49:44;;;;;;;49.03;22.17;;;10.60;99.90;;;;;;4969600;28;20508;-75
2024/02/22 04:52:11;;;;;;;54.15;23.88;;;10.60;99.90;;;;;;4972878;28;20037;-76
2024/02/22 04:54:37;;;;;;;54.47;20.77;;;10.60;99.90;;;;;;4987691;28;20068;-76
2024/02/22 04:57:03;;;;;;;54.97;24.20;;;10.60;99.90;;;;;;4996779;28;20210;-76
2024/02/22 04:59:30;;;;;;;45.53;21.02;;;10.60;99.90;;;;;;4979516;28;20540;-75
2024/02/22 05:01:56;;;;;;;40.47;20.05;;;10.60;99.90;;;;;;4991757;28;20021;-76
2024/02/22 05:04:23;;;;;;;44.65;21.08;;;10.60;99.90;;;;;;4986707;28;21456;-76
2024/02/22 05:06:49;;;;;;;49.78;21.63;;;10.60;99.90;;;;;;4983880;28;20586;-75
2024/02/22 05:09:15;;;;;;;50.22;21.50;;;10.60;99.90;;;;;;4970800;28;20029;-75
2024/02/22 05:11:48;;;;;;;44.78;21.02;;;10.60;99.90;;;;;;4957493;28;20032;-75
2024/02/22 05:14:15;;;;;;;52.65;22.23;;;10.60;99.90;;;;;;4971645;28;21515;-75
2024/02/22 05:16:41;;;;;;;47.45;21.92;;;10.50;99.90;;;;;;4994441;28;20072;-76
2024/02/22 05:19:08;;;;;;;52.20;20.95;;;10.50;99.90;;;;;;4994932;28;20044;-75
2024/02/22 05:21:35;;;;;;;67.85;23.67;;;10.50;99.90;;;;;;4982527;28;20287;-75
2024/02/22 05:24:01;;;;;;;43.28;18.33;;;10.40;99.90;;;;;;5020000;28;20308;-75
2024/02/22 05:26:28;;;;;;;45.08;18.27;;;10.40;99.90;;;;;;4988102;28;20026;-76
2024/02/22 05:28:55;;;;;;;45.33;18.30;;;10.40;99.90;;;;;;4985990;28;20030;-75
2024/02/22 05:31:25;;;;;;;41.47;17.73;;;10.40;99.90;;;;;;4973040;28;20048;-76
2024/02/22 05:33:52;;;;;;;44.30;17.60;;;10.30;99.90;;;;;;4978512;28;20033;-75
2024/02/22 05:36:19;;;;;;;40.47;17.67;;;10.20;99.90;;;;;;4993748;28;20032;-75
2024/02/22 05:38:46;;;;;;;29.40;14.13;;;10.20;99.90;;;;;;5002366;28;20049;-75
2024/02/22 05:41:13;;;;;;;31.08;14.38;;;10.10;99.90;;;;;;4970162;28;20041;-75
2024/02/22 05:43:40;;;;;;;33.63;14.18;;;10.00;99.90;;;;;;4986428;28;20303;-75
2024/02/22 05:46:07;;;;;;;29.38;13.93;;;9.90;99.90;;;;;;4969044;28;20041;-75
2024/02/22 05:48:33;;;;;;;38.30;14.23;;;9.80;99.90;;;;;;4987627;28;20052;-75
2024/02/22 05:51:00;;;;;;;26.90;12.82;;;9.80;99.90;;;;;;4961779;28;20040;-76
2024/02/22 05:53:26;;;;;;;36.28;12.38;;;9.80;99.90;;;;;;4980642;28;20038;-76
2024/02/22 05:55:52;;;;;;;29.45;10.75;;;9.90;99.90;;;;;;4990832;28;20152;-76
2024/02/22 05:58:19;;;;;;;35.83;12.02;;;9.90;99.90;;;;;;5004743;28;20037;-75
2024/02/22 06:00:45;;;;;;;35.30;12.60;;;9.90;99.90;;;;;;4971330;28;21479;-76
2024/02/22 06:03:12;;;;;;;35.05;12.45;;;9.90;99.90;;;;;;4972897;28;20048;-76
2024/02/22 06:05:38;;;;;;;34.78;11.40;;;9.90;99.90;;;;;;4958987;28;20036;-75
2024/02/22 06:08:05;;;;;;;26.50;10.32;;;9.90;99.90;;;;;;4960568;28;20025;-75
2024/02/22 06:10:31;;;;;;;26.45;10.90;;;9.90;99.90;;;;;;5002058;28;20037;-76
2024/02/22 06:12:58;;;;;;;24.63;10.07;;;9.90;99.90;;;;;;4982305;28;20041;-76
2024/02/22 06:15:25;;;;;;;35.58;11.57;;;9.90;99.90;;;;;;5002508;28;20471;-75
2024/02/22 06:17:51;;;;;;;28.55;11.77;;;9.90;99.90;;;;;;4971336;28;20030;-76
2024/02/22 06:20:17;;;;;;;31.90;13.07;;;9.90;99.90;;;;;;4975406;28;20503;-75
2024/02/22 06:22:44;;;;;;;34.72;15.13;;;9.90;99.90;;;;;;4990882;28;20037;-75
2024/02/22 06:25:12;;;;;;;37.25;15.60;;;9.90;99.90;;;;;;4988609;28;20041;-76
2024/02/22 06:27:43;;;;;;;41.20;17.23;;;9.90;99.90;;;;;;4995733;28;20033;-75
2024/02/22 06:30:10;;;;;;;44.78;18.88;;;9.90;99.90;;;;;;4983930;28;20075;-75
2024/02/22 06:32:37;;;;;;;45.67;18.67;;;10.00;99.90;;;;;;4981609;28;20033;-75
2024/02/22 06:35:03;;;;;;;43.45;19.98;;;9.90;99.90;;;;;;4970539;28;20033;-75
2024/02/22 06:37:30;;;;;;;45.50;20.88;;;9.90;99.90;;;;;;5020299;28;20025;-74
2024/02/22 06:39:56;;;;;;;49.75;23.30;;;9.90;99.90;;;;;;4985210;28;22758;-75
2024/02/22 06:42:22;;;;;;;55.53;23.67;;;9.90;99.90;;;;;;4987123;28;21051;-75
2024/02/22 06:44:50;;;;;;;47.13;20.92;;;9.90;99.90;;;;;;4987021;28;20034;-75
2024/02/22 06:47:17;;;;;;;47.78;22.42;;;9.90;99.90;;;;;;4995571;28;20041;-76
2024/02/22 06:49:43;;;;;;;48.55;20.25;;;9.90;99.90;;;;;;5000802;28;20049;-75
2024/02/22 06:52:10;;;;;;;47.22;20.17;;;9.90;99.90;;;;;;4993945;28;20037;-76
2024/02/22 06:54:36;;;;;;;44.17;20.70;;;9.90;99.90;;;;;;4991628;28;20033;-75
2024/02/22 06:57:05;;;;;;;40.88;19.30;;;9.90;99.90;;;;;;4993921;28;20023;-75
2024/02/22 06:59:34;;;;;;;43.42;19.15;;;9.90;99.90;;;;;;4991464;28;20037;-75
2024/02/22 07:02:01;;;;;;;38.00;18.27;;;9.90;99.90;;;;;;4993438;28;20017;-75
2024/02/22 07:04:27;;;;;;;57.08;27.65;;;9.90;99.90;;;;;;4998368;28;20037;-75
2024/02/22 07:06:54;;;;;;;62.83;27.30;;;10.00;99.90;;;;;;5002126;28;20045;-75
2024/02/22 07:09:21;;;;;;;51.40;24.85;;;10.00;99.90;;;;;;4995268;28;20040;-74
2024/02/22 07:11:48;;;;;;;68.00;26.98;;;10.00;99.90;;;;;;4977070;28;20018;-75
2024/02/22 07:14:14;;;;;;;55.50;23.42;;;10.00;99.90;;;;;;4975519;28;20033;-75
2024/02/22 07:16:41;;;;;;;51.60;22.75;;;10.10;99.90;;;;;;4989369;28;20056;-74
2024/02/22 07:19:08;;;;;;;50.63;21.30;;;10.20;99.90;;;;;;4974716;28;20041;-75
2024/02/22 07:21:35;;;;;;;39.78;19.00;;;10.20;99.90;;;;;;4996176;28;20036;-75
2024/02/22 07:24:03;;;;;;;38.90;18.20;;;10.20;99.90;;;;;;4999119;28;20415;-75
2024/02/22 07:26:30;;;;;;;48.80;20.80;;;10.30;99.90;;;;;;4993996;28;20044;-76
2024/02/22 07:28:58;;;;;;;49.20;20.00;;;10.30;99.90;;;;;;4989335;28;20028;-75
2024/02/22 07:31:24;;;;;;;53.97;22.15;;;10.30;99.90;;;;;;4990727;28;20913;-75
2024/02/22 07:33:52;;;;;;;50.78;22.65;;;10.40;99.90;;;;;;4975637;28;20385;-75
2024/02/22 07:36:19;;;;;;;48.60;20.63;;;10.40;99.90;;;;;;4990631;28;20041;-75
2024/02/22 07:38:48;;;;;;;43.22;19.77;;;10.50;99.90;;;;;;4978039;28;21447;-75
2024/02/22 07:41:15;;;;;;;35.00;17.95;;;10.50;99.90;;;;;;4983316;28;20028;-75
2024/02/22 07:43:43;;;;;;;39.70;18.63;;;10.50;99.90;;;;;;4998641;28;20043;-75
2024/02/22 07:46:11;;;;;;;42.63;20.77;;;10.50;99.90;;;;;;4991096;28;20765;-75
2024/02/22 07:48:40;;;;;;;44.15;21.00;;;10.60;99.90;;;;;;4959976;28;20037;-75
2024/02/22 07:51:08;;;;;;;43.90;22.63;;;10.50;99.90;;;;;;4975690;28;20052;-75
2024/02/22 07:53:36;;;;;;;50.90;23.92;;;10.60;99.90;;;;;;4976480;28;20045;-75
2024/02/22 07:56:04;;;;;;;41.65;22.00;;;10.50;99.90;;;;;;4993453;28;20025;-75
2024/02/22 07:58:53;;;;;;;45.80;22.70;;;10.50;99.90;;;;;;5001982;28;20048;-75
2024/02/22 08:01:19;;;;;;;43.90;22.73;;;10.50;99.90;;;;;;4982450;28;20044;-75
2024/02/22 08:03:46;;;;;;;43.05;23.17;;;10.50;99.90;;;;;;4992317;28;20552;-75
2024/02/22 08:06:13;;;;;;;40.53;21.67;;;10.50;99.90;;;;;;4973136;28;20128;-75
2024/02/22 08:08:40;;;;;;;43.03;21.52;;;10.50;99.90;;;;;;4989034;28;20025;-75
2024/02/22 08:11:07;;;;;;;37.65;20.83;;;10.50;99.90;;;;;;4975817;28;20883;-75
2024/02/22 08:13:34;;;;;;;46.65;22.67;;;10.60;99.90;;;;;;4991626;28;20037;-76
2024/02/22 08:16:03;;;;;;;45.83;23.08;;;10.60;99.90;;;;;;4996308;28;20444;-75
2024/02/22 08:18:29;;;;;;;45.35;23.10;;;10.60;99.90;;;;;;4982434;28;20480;-75
2024/02/22 08:20:57;;;;;;;45.67;23.52;;;10.60;99.90;;;;;;4992332;28;20873;-74
2024/02/22 08:23:23;;;;;;;42.05;23.27;;;10.60;99.90;;;;;;4991442;28;20037;-75
2024/02/22 08:25:49;;;;;;;42.60;22.45;;;10.60;99.90;;;;;;4958343;28;20468;-75
2024/02/22 08:28:16;;;;;;;41.08;21.55;;;10.60;99.90;;;;;;4988686;28;20033;-75
2024/02/22 08:30:42;;;;;;;44.25;22.45;;;10.60;99.90;;;;;;4989921;28;20531;-75
2024/02/22 08:33:11;;;;;;;41.88;22.40;;;10.60;99.90;;;;;;4980910;28;20040;-75
2024/02/22 08:35:38;;;;;;;41.92;23.95;;;10.50;99.90;;;;;;4996729;28;20567;-75
2024/02/22 08:38:04;;;;;;;38.28;22.73;;;10.60;99.90;;;;;;4993330;28;20046;-74
2024/02/22 08:40:30;;;;;;;37.95;21.45;;;10.50;99.90;;;;;;4990875;28;20025;-74
2024/02/22 08:43:00;;;;;;;33.28;20.02;;;10.50;99.90;;;;;;4989563;28;20628;-75
2024/02/22 08:45:27;;;;;;;35.80;20.33;;;10.50;99.90;;;;;;4971429;28;20587;-76
2024/02/22 08:47:53;;;;;;;36.08;23.17;;;10.60;99.90;;;;;;4986878;28;21069;-75
2024/02/22 08:50:20;;;;;;;32.05;20.42;;;10.60;99.90;;;;;;4967219;28;20500;-73
2024/02/22 08:52:47;;;;;;;30.45;19.27;;;10.70;99.90;;;;;;4978609;28;20037;-74
2024/02/22 08:55:14;;;;;;;26.27;17.20;;;10.80;99.90;;;;;;4969040;28;21516;-75
2024/02/22 08:57:40;;;;;;;26.33;16.63;;;10.80;99.90;;;;;;4983573;28;20038;-75
2024/02/22 09:00:10;;;;;;;27.05;17.75;;;10.90;99.90;;;;;;4957049;28;20033;-74
2024/02/22 09:02:37;;;;;;;24.90;15.98;;;11.00;99.90;;;;;;4970564;28;20040;-75
2024/02/22 09:05:06;;;;;;;24.00;15.73;;;11.00;99.90;;;;;;4970076;28;20041;-74
2024/02/22 09:07:35;;;;;;;23.60;15.75;;;11.10;99.90;;;;;;4996074;28;20040;-74
2024/02/22 09:10:04;;;;;;;25.15;15.88;;;11.20;99.90;;;;;;4995963;28;20368;-74
2024/02/22 09:12:30;;;;;;;19.50;12.38;;;11.20;99.90;;;;;;4975480;28;20029;-75
2024/02/22 09:14:56;;;;;;;21.25;13.43;;;11.30;99.90;;;;;;4987267;28;20033;-78
2024/02/22 09:17:23;;;;;;;22.83;15.07;;;11.30;99.90;;;;;;4971534;28;20041;-74
2024/02/22 09:19:51;;;;;;;27.88;16.58;;;11.30;99.90;;;;;;4970333;28;20033;-76
2024/02/22 09:22:20;;;;;;;24.02;16.25;;;11.30;99.90;;;;;;4984713;28;20404;-75
2024/02/22 09:24:47;;;;;;;25.10;16.75;;;11.30;99.90;;;;;;4992790;28;20033;-75
2024/02/22 09:27:14;;;;;;;24.52;17.33;;;11.30;99.90;;;;;;4994247;28;20516;-75
2024/02/22 09:29:42;;;;;;;24.30;17.73;;;11.40;99.90;;;;;;4971384;28;20049;-76
2024/02/22 09:32:09;;;;;;;23.50;17.83;;;11.40;99.90;;;;;;4986217;28;20641;-75
2024/02/22 09:34:37;;;;;;;22.15;16.73;;;11.50;99.90;;;;;;4971452;28;20045;-75
2024/02/22 09:37:05;;;;;;;21.70;15.90;;;11.60;99.90;;;;;;4949017;28;20516;-75
2024/02/22 09:39:32;;;;;;;22.15;16.23;;;11.70;99.90;;;;;;4948998;28;20049;-75
2024/02/22 09:41:59;;;;;;;23.77;17.40;;;11.70;99.90;;;;;;5006186;28;20470;-75
2024/02/22 09:44:28;;;;;;;19.88;14.90;;;11.80;99.90;;;;;;4977654;28;20049;-75
2024/02/22 09:46:54;;;;;;;21.08;15.18;;;11.90;99.90;;;;;;4961964;28;20065;-74
2024/02/22 09:49:22;;;;;;;17.40;13.52;;;12.00;99.90;;;;;;4989999;28;20050;-74
2024/02/22 09:51:50;;;;;;;15.73;14.02;;;12.00;99.90;;;;;;4966684;28;20040;-75
2024/02/22 09:54:20;;;;;;;13.95;12.30;;;12.00;99.90;;;;;;4981967;28;20048;-75
2024/02/22 09:56:50;;;;;;;16.20;14.07;;;12.00;99.90;;;;;;4966792;28;20403;-75
2024/02/22 09:59:18;;;;;;;13.82;12.25;;;12.00;99.90;;;;;;4971628;28;20044;-75
2024/02/22 10:01:45;;;;;;;13.57;12.20;;;12.00;99.90;;;;;;4996344;28;20045;-75
2024/02/22 10:04:19;;;;;;;14.20;12.80;;;12.00;99.90;;;;;;4991758;28;20408;-75
2024/02/22 10:06:47;;;;;;;12.63;11.32;;;12.10;99.90;;;;;;4989020;28;20037;-74
2024/02/22 10:09:14;;;;;;;11.75;10.40;;;12.10;99.90;;;;;;4989407;28;20620;-75
2024/02/22 10:11:45;;;;;;;10.60;9.50;;;12.10;99.90;;;;;;4989312;28;20030;-75
2024/02/22 10:14:15;;;;;;;10.43;9.32;;;12.00;99.90;;;;;;4986344;28;20045;-73
2024/02/22 10:16:45;;;;;;;11.00;9.93;;;12.00;99.90;;;;;;5007397;28;20045;-74
2024/02/22 10:19:13;;;;;;;11.07;9.98;;;11.90;99.90;;;;;;5025615;28;20049;-73
2024/02/22 10:21:39;;;;;;;11.32;10.32;;;12.00;99.90;;;;;;4994163;28;20037;-74
2024/02/22 10:24:06;;;;;;;10.93;9.85;;;12.00;99.90;;;;;;4968383;28;20424;-74
2024/02/22 10:26:32;;;;;;;9.57;8.68;;;11.90;99.90;;;;;;4984059;28;20041;-75
2024/02/22 10:29:09;;;;;;;7.43;6.82;;;11.90;99.90;;;;;;4985635;28;20033;-75
2024/02/22 10:31:48;;;;;;;7.35;6.65;;;11.80;99.90;;;;;;4987342;28;20196;-74
2024/02/22 10:34:14;;;;;;;6.97;6.47;;;11.80;99.90;;;;;;4995647;28;20036;-75
2024/02/22 10:36:42;;;;;;;7.45;6.50;;;11.80;99.90;;;;;;4990542;28;20029;-74
2024/02/22 10:39:09;;;;;;;6.95;6.43;;;11.80;99.90;;;;;;4972007;28;20042;-75
2024/02/22 10:41:36;;;;;;;6.97;6.47;;;11.70;99.90;;;;;;4980369;28;20385;-75
2024/02/22 10:44:03;;;;;;;7.97;7.28;;;11.70;99.90;;;;;;4965526;28;20276;-76
2024/02/22 10:46:36;;;;;;;8.05;7.25;;;11.60;99.90;;;;;;4974995;28;21133;-74
2024/02/22 10:49:10;;;;;;;8.35;7.65;;;11.60;99.90;;;;;;4992938;28;20025;-75
2024/02/22 10:51:39;;;;;;;8.25;7.32;;;11.60;99.90;;;;;;4967596;28;20349;-74
2024/02/22 10:54:10;;;;;;;10.10;9.20;;;11.60;99.90;;;;;;5011020;28;20041;-75
2024/02/22 10:56:41;;;;;;;9.25;8.35;;;11.60;99.90;;;;;;5006879;28;20040;-75
2024/02/22 10:59:10;;;;;;;8.90;8.00;;;11.50;99.90;;;;;;5005158;28;20459;-74
2024/02/22 11:01:38;;;;;;;7.78;7.13;;;11.50;99.90;;;;;;4973180;28;20041;-75
2024/02/22 11:04:05;;;;;;;8.85;8.00;;;11.50;99.90;;;;;;5009248;28;20365;-75
2024/02/22 11:06:39;;;;;;;9.93;8.95;;;11.50;99.90;;;;;;4997409;28;20146;-74
2024/02/22 11:09:18;;;;;;;7.93;7.22;;;11.50;99.90;;;;;;4996377;28;21203;-75
2024/02/22 11:11:51;;;;;;;9.20;8.40;;;11.50;99.90;;;;;;4975057;28;20041;-75
2024/02/22 11:14:40;;;;;;;8.80;7.97;;;11.60;99.90;;;;;;4974286;28;20033;-74
2024/02/22 11:17:26;;;;;;;8.32;7.63;;;11.60;99.90;;;;;;5004914;28;20041;-75
2024/02/22 11:19:54;;;;;;;10.05;9.15;;;11.70;99.90;;;;;;4973503;28;20041;-74
2024/02/22 11:22:20;;;;;;;7.93;7.13;;;11.70;99.90;;;;;;4995754;28;20025;-74
2024/02/22 11:24:48;;;;;;;8.98;8.30;;;11.70;99.90;;;;;;4967653;28;20034;-74
2024/02/22 11:27:18;;;;;;;9.18;8.48;;;11.70;99.90;;;;;;5027961;28;20044;-74
2024/02/22 11:29:45;;;;;;;8.73;8.02;;;11.70;99.90;;;;;;4990274;28;20153;-75
2024/02/22 11:32:13;;;;;;;8.02;7.43;;;11.70;99.90;;;;;;4960308;28;20030;-74
2024/02/22 11:34:39;;;;;;;8.07;7.47;;;11.80;99.90;;;;;;4988523;28;20037;-75
2024/02/22 11:37:19;;;;;;;7.53;6.93;;;11.80;99.90;;;;;;4992209;28;20060;-76
2024/02/22 11:39:57;;;;;;;8.93;8.23;;;11.80;99.90;;;;;;5013993;28;20044;-75
2024/02/22 11:42:24;;;;;;;7.82;7.22;;;11.80;99.90;;;;;;4993183;28;20047;-75
2024/02/22 11:44:51;;;;;;;7.97;7.38;;;11.80;99.90;;;;;;4973160;28;20423;-74
2024/02/22 11:47:18;;;;;;;9.20;8.40;;;11.80;99.90;;;;;;4988799;28;20052;-75
2024/02/22 11:49:45;;;;;;;6.22;5.72;;;11.70;99.90;;;;;;4991328;28;20049;-75
2024/02/22 11:52:12;;;;;;;5.97;5.47;;;11.70;99.90;;;;;;5024495;28;20396;-74
2024/02/22 11:54:42;;;;;;;5.93;5.43;;;11.70;99.90;;;;;;5013206;28;20037;-75
2024/02/22 11:57:08;;;;;;;6.68;6.10;;;11.80;99.90;;;;;;4995237;28;20037;-74
2024/02/22 11:59:35;;;;;;;6.55;6.07;;;11.70;99.90;;;;;;4986594;28;20045;-74
2024/02/22 12:02:02;;;;;;;4.57;4.22;;;11.70;99.90;;;;;;4969936;28;20048;-75
2024/02/22 12:04:33;;;;;;;6.45;5.97;;;11.70;99.90;;;;;;4986857;28;20037;-74
2024/02/22 12:07:03;;;;;;;6.00;5.50;;;11.70;99.90;;;;;;4988723;28;20037;-74
2024/02/22 12:09:30;;;;;;;6.70;6.15;;;11.80;99.90;;;;;;4970531;28;20436;-75
2024/02/22 12:11:56;;;;;;;7.35;6.85;;;11.80;99.90;;;;;;4996426;28;20029;-75
2024/02/22 12:14:23;;;;;;;7.25;6.68;;;11.80;99.90;;;;;;4982161;28;20033;-76
2024/02/22 12:16:49;;;;;;;7.47;6.78;;;11.70;99.90;;;;;;4991273;28;20978;-75
2024/02/22 12:19:17;;;;;;;7.88;7.38;;;11.70;99.90;;;;;;4972719;28;20042;-76
2024/02/22 12:21:49;;;;;;;9.88;9.00;;;11.70;99.90;;;;;;4973627;28;20029;-76
2024/02/22 12:24:16;;;;;;;9.88;9.07;;;11.70;99.90;;;;;;4972725;28;20044;-75
2024/02/22 12:26:42;;;;;;;8.38;7.68;;;11.60;99.90;;;;;;4987319;28;20038;-75
2024/02/22 12:29:09;;;;;;;9.18;8.07;;;11.60;99.90;;;;;;4990864;28;20028;-75
2024/02/22 12:31:35;;;;;;;7.95;7.35;;;11.60;99.90;;;;;;5001192;28;20033;-75
2024/02/22 12:34:02;;;;;;;6.63;6.10;;;11.60;99.90;;;;;;4974322;28;20041;-75